sensor_id;sensor_type;location;lat;lon;timestamp;temperature;humidity
35305;DHT22;26433;48.034;-1.764;2022-12-29T06:02:15;11.50;99.90
35305;DHT22;26433;48.034;-1.764;2022-12-29T06:07:19;11.50;99.90
35305;DHT22;26433;48.034;-1.764;2022-12-29T06:12:24;11.40;99.90
35305;DHT22;26433;48.034;-1.764;2022-12-29T06:17:30;11.30;99.90
35305;DHT22;26433;48.034;-1.764;2022-12-29T06:22:34;11.20;99.90
35305;DHT22;26433;48.034;-1.764;2022-12-29T06:27:38;11.20;99.90
35305;DHT22;26433;48.034;-1.764;2022-12-29T06:32:44;11.10;99.90
35305;DHT22;26433;48.034;-1.764;2022-12-29T06:37:48;11.10;99.90
35305;DHT22;26433;48.034;-1.764;2022-12-29T06:42:52;11.00;99.90
35305;DHT22;26433;48.034;-1.764;2022-12-29T06:47:57;10.90;99.90
35305;DHT22;26433;48.034;-1.764;2022-12-29T06:53:01;10.90;99.90
35305;DHT22;26433;48.034;-1.764;2022-12-29T06:58:05;10.90;99.90
35305;DHT22;26433;48.034;-1.764;2022-12-29T07:03:10;10.80;99.90
35305;DHT22;26433;48.034;-1.764;2022-12-29T07:08:14;10.80;99.90
35305;DHT22;26433;48.034;-1.764;2022-12-29T07:13:18;10.80;99.90
35305;DHT22;26433;48.034;-1.764;2022-12-29T07:18:23;10.80;99.90
35305;DHT22;26433;48.034;-1.764;2022-12-29T07:23:27;10.80;99.90
35305;DHT22;26433;48.034;-1.764;2022-12-29T07:28:31;10.80;99.90
35305;DHT22;26433;48.034;-1.764;2022-12-29T07:33:36;10.80;99.90
35305;DHT22;26433;48.034;-1.764;2022-12-29T07:38:40;10.80;99.90
35305;DHT22;26433;48.034;-1.764;2022-12-29T07:43:46;10.40;99.90
35305;DHT22;26433;48.034;-1.764;2022-12-29T07:48:56;10.60;99.90
35305;DHT22;26433;48.034;-1.764;2022-12-29T07:54:00;10.60;99.90
35305;DHT22;26433;48.034;-1.764;2022-12-29T07:59:03;10.50;99.90
35305;DHT22;26433;48.034;-1.764;2022-12-29T08:04:09;10.80;99.90
35305;DHT22;26433;48.034;-1.764;2022-12-29T08:09:13;10.40;99.90
35305;DHT22;26433;48.034;-1.764;2022-12-29T08:14:24;10.60;99.90
35305;DHT22;26433;48.034;-1.764;2022-12-29T08:19:29;10.40;99.90
35305;DHT22;26433;48.034;-1.764;2022-12-29T08:29:36;10.40;99.90
35305;DHT22;26433;48.034;-1.764;2022-12-29T08:34:41;10.40;99.90
35305;DHT22;26433;48.034;-1.764;2022-12-29T08:44:49;10.50;99.90
35305;DHT22;26433;48.034;-1.764;2022-12-29T08:49:54;10.60;99.90
35305;DHT22;26433;48.034;-1.764;2022-12-29T08:54:58;10.50;99.90
35305;DHT22;26433;48.034;-1.764;2022-12-29T09:00:05;10.60;99.90
35305;DHT22;26433;48.034;-1.764;2022-12-29T09:05:10;10.70;99.90
35305;DHT22;26433;48.034;-1.764;2022-12-29T09:10:14;10.80;99.90
35305;DHT22;26433;48.034;-1.764;2022-12-29T09:15:18;10.80;99.90
35305;DHT22;26433;48.034;-1.764;2022-12-29T09:20:23;10.90;99.90
35305;DHT22;26433;48.034;-1.764;2022-12-29T09:25:27;10.90;99.90
35305;DHT22;26433;48.034;-1.764;2022-12-29T09:35:36;11.20;99.90
35305;DHT22;26433;48.034;-1.764;2022-12-29T09:40:40;11.30;99.90
35305;DHT22;26433;48.034;-1.764;2022-12-29T09:45:45;11.70;99.90
35305;DHT22;26433;48.034;-1.764;2022-12-29T09:50:56;11.80;99.90
35305;DHT22;26433;48.034;-1.764;2022-12-29T09:56:02;12.00;99.90
35305;DHT22;26433;48.034;-1.764;2022-12-29T10:01:06;12.10;99.90
35305;DHT22;26433;48.034;-1.764;2022-12-29T10:06:15;12.30;99.80
35305;DHT22;26433;48.034;-1.764;2022-12-29T10:11:33;12.40;99.30
35305;DHT22;26433;48.034;-1.764;2022-12-29T10:16:46;12.50;98.90
35305;DHT22;26433;48.034;-1.764;2022-12-29T10:22:03;12.80;99.00
35305;DHT22;26433;48.034;-1.764;2022-12-29T10:27:12;13.00;98.00
35305;DHT22;26433;48.034;-1.764;2022-12-29T10:32:24;13.20;97.50
35305;DHT22;26433;48.034;-1.764;2022-12-29T10:37:38;13.40;96.90
35305;DHT22;26433;48.034;-1.764;2022-12-29T10:42:46;13.60;96.60
35305;DHT22;26433;48.034;-1.764;2022-12-29T10:47:57;13.80;95.80
35305;DHT22;26433;48.034;-1.764;2022-12-29T10:53:05;14.00;95.40
35305;DHT22;26433;48.034;-1.764;2022-12-29T10:58:12;14.20;94.90
35305;DHT22;26433;48.034;-1.764;2022-12-29T11:03:42;14.30;93.90
35305;DHT22;26433;48.034;-1.764;2022-12-29T11:08:53;14.40;94.00
35305;DHT22;26433;48.034;-1.764;2022-12-29T11:13:59;14.80;93.10
35305;DHT22;26433;48.034;-1.764;2022-12-29T11:19:05;15.00;91.30
35305;DHT22;26433;48.034;-1.764;2022-12-29T11:24:21;15.00;91.20
35305;DHT22;26433;48.034;-1.764;2022-12-29T11:29:29;15.20;90.70
35305;DHT22;26433;48.034;-1.764;2022-12-29T11:34:40;15.30;90.00
35305;DHT22;26433;48.034;-1.764;2022-12-29T11:39:50;15.30;86.60
35305;DHT22;26433;48.034;-1.764;2022-12-29T11:44:54;15.50;86.60
35305;DHT22;26433;48.034;-1.764;2022-12-29T11:50:00;15.60;83.70
35305;DHT22;26433;48.034;-1.764;2022-12-29T11:55:17;15.60;80.30
35305;DHT22;26433;48.034;-1.764;2022-12-29T12:00:23;15.60;80.10
35305;DHT22;26433;48.034;-1.764;2022-12-29T12:05:37;15.90;78.90
35305;DHT22;26433;48.034;-1.764;2022-12-29T12:10:48;16.10;78.00
35305;DHT22;26433;48.034;-1.764;2022-12-29T12:15:58;16.40;76.60
35305;DHT22;26433;48.034;-1.764;2022-12-29T12:21:13;16.60;75.30
35305;DHT22;26433;48.034;-1.764;2022-12-29T12:26:23;16.60;75.00
35305;DHT22;26433;48.034;-1.764;2022-12-29T12:31:41;16.70;73.90
35305;DHT22;26433;48.034;-1.764;2022-12-29T12:36:59;16.90;73.90
35305;DHT22;26433;48.034;-1.764;2022-12-29T12:42:18;17.00;71.90
35305;DHT22;26433;48.034;-1.764;2022-12-29T12:47:43;16.70;73.20
35305;DHT22;26433;48.034;-1.764;2022-12-29T12:53:17;16.70;72.80
35305;DHT22;26433;48.034;-1.764;2022-12-29T12:58:30;16.80;72.60
35305;DHT22;26433;48.034;-1.764;2022-12-29T13:03:47;17.00;69.50
35305;DHT22;26433;48.034;-1.764;2022-12-29T13:14:30;16.20;70.50
35305;DHT22;26433;48.034;-1.764;2022-12-29T13:19:41;15.70;72.20
35305;DHT22;26433;48.034;-1.764;2022-12-29T13:24:59;15.00;73.40
35305;DHT22;26433;48.034;-1.764;2022-12-29T13:30:10;14.10;76.90
35305;DHT22;26433;48.034;-1.764;2022-12-29T13:40:44;13.20;81.80
35305;DHT22;26433;48.034;-1.764;2022-12-29T13:45:55;13.60;81.00
35305;DHT22;26433;48.034;-1.764;2022-12-29T13:51:01;13.80;79.70
35305;DHT22;26433;48.034;-1.764;2022-12-29T13:56:08;14.20;78.50
35305;DHT22;26433;48.034;-1.764;2022-12-29T14:01:18;14.30;77.80
35305;DHT22;26433;48.034;-1.764;2022-12-29T14:06:26;14.40;77.40
35305;DHT22;26433;48.034;-1.764;2022-12-29T14:11:32;14.20;78.20
35305;DHT22;26433;48.034;-1.764;2022-12-29T14:16:39;14.00;80.10
35305;DHT22;26433;48.034;-1.764;2022-12-29T14:21:53;14.10;80.80
35305;DHT22;26433;48.034;-1.764;2022-12-29T14:26:57;14.30;79.80
35305;DHT22;26433;48.034;-1.764;2022-12-29T14:32:09;14.30;79.80
35305;DHT22;26433;48.034;-1.764;2022-12-29T14:37:29;14.30;80.50
35305;DHT22;26433;48.034;-1.764;2022-12-29T14:42:33;14.50;80.10
35305;DHT22;26433;48.034;-1.764;2022-12-29T14:47:40;14.50;79.10
35305;DHT22;26433;48.034;-1.764;2022-12-29T14:52:46;14.20;79.50
35305;DHT22;26433;48.034;-1.764;2022-12-29T14:57:53;14.00;81.60
35305;DHT22;26433;48.034;-1.764;2022-12-29T15:03:06;13.90;81.70
35305;DHT22;26433;48.034;-1.764;2022-12-29T15:08:11;13.90;81.40
35305;DHT22;26433;48.034;-1.764;2022-12-29T15:13:20;14.00;81.10
35305;DHT22;26433;48.034;-1.764;2022-12-29T15:18:28;13.90;80.60
35305;DHT22;26433;48.034;-1.764;2022-12-29T15:23:33;13.80;81.30
35305;DHT22;26433;48.034;-1.764;2022-12-29T15:28:39;13.70;81.50
35305;DHT22;26433;48.034;-1.764;2022-12-29T15:33:46;13.50;81.80
35305;DHT22;26433;48.034;-1.764;2022-12-29T15:38:51;13.40;82.30
35305;DHT22;26433;48.034;-1.764;2022-12-29T15:44:04;13.40;82.90
35305;DHT22;26433;48.034;-1.764;2022-12-29T15:49:14;13.30;83.00
35305;DHT22;26433;48.034;-1.764;2022-12-29T15:54:20;13.40;83.00
35305;DHT22;26433;48.034;-1.764;2022-12-29T15:59:26;13.40;82.70
35305;DHT22;26433;48.034;-1.764;2022-12-29T16:04:32;13.50;82.90
35305;DHT22;26433;48.034;-1.764;2022-12-29T16:09:57;13.50;82.50
35305;DHT22;26433;48.034;-1.764;2022-12-29T16:15:03;13.20;83.10
35305;DHT22;26433;48.034;-1.764;2022-12-29T16:20:17;12.80;84.70
35305;DHT22;26433;48.034;-1.764;2022-12-29T16:25:23;12.60;86.10
35305;DHT22;26433;48.034;-1.764;2022-12-29T16:30:29;12.40;87.10
35305;DHT22;26433;48.034;-1.764;2022-12-29T16:35:45;12.30;87.70
35305;DHT22;26433;48.034;-1.764;2022-12-29T16:40:53;12.20;87.90
35305;DHT22;26433;48.034;-1.764;2022-12-29T16:46:21;12.10;88.20
35305;DHT22;26433;48.034;-1.764;2022-12-29T16:51:33;12.10;88.20
35305;DHT22;26433;48.034;-1.764;2022-12-29T16:56:43;12.10;88.20
35305;DHT22;26433;48.034;-1.764;2022-12-29T17:01:47;12.00;88.00
35305;DHT22;26433;48.034;-1.764;2022-12-29T17:06:52;11.80;88.70
35305;DHT22;26433;48.034;-1.764;2022-12-29T17:11:58;11.60;89.90
35305;DHT22;26433;48.034;-1.764;2022-12-29T17:17:16;11.50;90.20
35305;DHT22;26433;48.034;-1.764;2022-12-29T17:22:24;11.40;90.40
35305;DHT22;26433;48.034;-1.764;2022-12-29T17:27:31;11.30;90.50
35305;DHT22;26433;48.034;-1.764;2022-12-29T17:32:35;11.10;90.70
35305;DHT22;26433;48.034;-1.764;2022-12-29T17:37:41;11.00;90.80
35305;DHT22;26433;48.034;-1.764;2022-12-29T17:42:46;10.90;91.10
35305;DHT22;26433;48.034;-1.764;2022-12-29T17:47:51;10.90;91.50
35305;DHT22;26433;48.034;-1.764;2022-12-29T17:52:58;10.80;91.30
35305;DHT22;26433;48.034;-1.764;2022-12-29T17:58:15;10.80;91.50
35305;DHT22;26433;48.034;-1.764;2022-12-29T18:03:23;10.80;91.50
35305;DHT22;26433;48.034;-1.764;2022-12-29T18:08:30;10.70;91.50
35305;DHT22;26433;48.034;-1.764;2022-12-29T18:13:34;10.70;91.50
35305;DHT22;26433;48.034;-1.764;2022-12-29T18:18:48;10.60;91.70
35305;DHT22;26433;48.034;-1.764;2022-12-29T18:23:53;10.60;91.80
35305;DHT22;26433;48.034;-1.764;2022-12-29T18:28:57;10.60;91.90
35305;DHT22;26433;48.034;-1.764;2022-12-29T18:34:01;10.50;92.10
35305;DHT22;26433;48.034;-1.764;2022-12-29T18:39:07;10.40;92.10
35305;DHT22;26433;48.034;-1.764;2022-12-29T18:44:11;10.40;92.20
35305;DHT22;26433;48.034;-1.764;2022-12-29T18:49:15;10.40;92.10
35305;DHT22;26433;48.034;-1.764;2022-12-29T18:54:26;10.30;92.40
35305;DHT22;26433;48.034;-1.764;2022-12-29T18:59:29;10.20;92.60
35305;DHT22;26433;48.034;-1.764;2022-12-29T19:04:33;10.20;92.70
35305;DHT22;26433;48.034;-1.764;2022-12-29T19:09:38;10.30;92.50
35305;DHT22;26433;48.034;-1.764;2022-12-29T19:14:42;10.20;92.70
35305;DHT22;26433;48.034;-1.764;2022-12-29T19:19:45;10.20;93.00
35305;DHT22;26433;48.034;-1.764;2022-12-29T19:24:50;10.10;93.20
35305;DHT22;26433;48.034;-1.764;2022-12-29T19:30:01;10.10;93.30
35305;DHT22;26433;48.034;-1.764;2022-12-29T19:35:06;10.10;93.50
35305;DHT22;26433;48.034;-1.764;2022-12-29T19:40:14;10.00;93.50
35305;DHT22;26433;48.034;-1.764;2022-12-29T19:45:18;10.00;93.70
35305;DHT22;26433;48.034;-1.764;2022-12-29T19:50:22;9.90;93.90
35305;DHT22;26433;48.034;-1.764;2022-12-29T19:55:27;9.90;94.20
35305;DHT22;26433;48.034;-1.764;2022-12-29T20:00:31;9.90;94.30
35305;DHT22;26433;48.034;-1.764;2022-12-29T20:05:35;9.90;94.20
35305;DHT22;26433;48.034;-1.764;2022-12-29T20:10:40;9.90;94.20
35305;DHT22;26433;48.034;-1.764;2022-12-29T20:15:44;9.90;94.40
35305;DHT22;26433;48.034;-1.764;2022-12-29T20:20:47;9.90;94.20
35305;DHT22;26433;48.034;-1.764;2022-12-29T20:25:57;9.80;94.30
35305;DHT22;26433;48.034;-1.764;2022-12-29T20:31:02;9.70;94.60
35305;DHT22;26433;48.034;-1.764;2022-12-29T20:36:07;9.70;94.70
35305;DHT22;26433;48.034;-1.764;2022-12-29T20:41:13;9.60;94.80
35305;DHT22;26433;48.034;-1.764;2022-12-29T20:46:18;9.50;95.00
35305;DHT22;26433;48.034;-1.764;2022-12-29T20:51:25;9.40;95.30
35305;DHT22;26433;48.034;-1.764;2022-12-29T20:56:31;9.30;95.40
35305;DHT22;26433;48.034;-1.764;2022-12-29T21:01:35;9.30;95.50
35305;DHT22;26433;48.034;-1.764;2022-12-29T21:06:39;9.20;95.80
35305;DHT22;26433;48.034;-1.764;2022-12-29T21:11:44;9.20;96.00
35305;DHT22;26433;48.034;-1.764;2022-12-29T21:16:49;9.20;95.80
35305;DHT22;26433;48.034;-1.764;2022-12-29T21:21:52;9.20;95.80
35305;DHT22;26433;48.034;-1.764;2022-12-29T21:26:57;9.10;96.10
35305;DHT22;26433;48.034;-1.764;2022-12-29T21:32:01;9.10;96.30
35305;DHT22;26433;48.034;-1.764;2022-12-29T21:37:08;9.10;96.40
35305;DHT22;26433;48.034;-1.764;2022-12-29T21:42:13;9.10;96.40
35305;DHT22;26433;48.034;-1.764;2022-12-29T21:47:17;9.10;96.40
35305;DHT22;26433;48.034;-1.764;2022-12-29T21:52:20;9.10;96.30
35305;DHT22;26433;48.034;-1.764;2022-12-29T21:57:25;9.10;96.40
35305;DHT22;26433;48.034;-1.764;2022-12-29T22:02:47;9.10;96.50
35305;DHT22;26433;48.034;-1.764;2022-12-29T22:08:08;9.10;96.70
35305;DHT22;26433;48.034;-1.764;2022-12-29T22:13:31;9.10;96.70
35305;DHT22;26433;48.034;-1.764;2022-12-29T22:18:36;9.00;97.00
35305;DHT22;26433;48.034;-1.764;2022-12-29T22:23:39;9.00;97.30
35305;DHT22;26433;48.034;-1.764;2022-12-29T22:28:45;9.00;97.50
35305;DHT22;26433;48.034;-1.764;2022-12-29T22:33:49;9.00;97.10
35305;DHT22;26433;48.034;-1.764;2022-12-29T22:38:53;8.90;97.40
35305;DHT22;26433;48.034;-1.764;2022-12-29T22:43:58;9.00;97.30
35305;DHT22;26433;48.034;-1.764;2022-12-29T22:49:02;8.90;97.60
35305;DHT22;26433;48.034;-1.764;2022-12-29T22:54:06;8.90;97.90
35305;DHT22;26433;48.034;-1.764;2022-12-29T22:59:11;8.90;97.90
35305;DHT22;26433;48.034;-1.764;2022-12-29T23:04:15;8.90;97.90
35305;DHT22;26433;48.034;-1.764;2022-12-29T23:09:39;8.90;97.80
35305;DHT22;26433;48.034;-1.764;2022-12-29T23:14:46;8.90;98.00
35305;DHT22;26433;48.034;-1.764;2022-12-29T23:19:50;8.90;98.00
35305;DHT22;26433;48.034;-1.764;2022-12-29T23:24:53;8.90;98.20
35305;DHT22;26433;48.034;-1.764;2022-12-29T23:29:58;8.80;98.30
